Arklow Rock — PBZM — position and weather

sailwx.info

Track history (hours):
 
Tides and Currents Weather Stations Pressure Air Temp Water Temp Dewpoint Dewpoint Depression Visibility Wind Speed Wind Dir Waves Ship Positions

Arklow Rock

Last reported at 2015-Jul-03 08:24 UTC. Time now 2015-Jul-03 20:16 UTC.
Position N 51°34' W 010°20'.

Length 90 m; draft 6.1 m.

Type: Cargo ship. MMSI: 246002000.

Date/timePositionNaut miles runAvg speedWind from/ knotsBaromVisibWave heightAir tempDewpointWater temp
2015-Jul-03 08:24N 51°34' W 010°20'1110.7
2015-Jul-03 07:24N 51°28' W 010°06'1910.4
2015-Jul-03 05:33N 51°15' W 009°42'10 9.9
2015-Jul-03 04:33N 51°10' W 009°30'240 9.5
2015-Jul-02 03:15N 50°07' W 003°25'811.4
2015-Jul-02 02:31N 50°09' W 003°12'1212.4
2015-Jul-02 01:33N 50°11' W 002°54'1712.9
2015-Jul-02 00:12N 50°15' W 002°27'75 9.3
2015-Jul-01 16:04N 50°29' W 000°31'3312.3
2015-Jul-01 13:23N 50°36' E 000°20'911.5
2015-Jul-01 12:33N 50°39' E 000°34'1110.6
2015-Jul-01 11:33N 50°45' E 000°48'10 9.8
2015-Jul-01 10:33N 50°51' E 001°01'10 9.9
2015-Jul-01 09:33N 50°57' E 001°13'1111.0
2015-Jul-01 08:33N 51°04' E 001°27'1313.5
2015-Jul-01 07:33N 51°12' E 001°43'1413.7
2015-Jul-01 06:33N 51°23' E 001°57'1110.7
2015-Jul-01 05:33N 51°21' E 002°13'1211.9
2015-Jul-01 04:33N 51°23' E 002°32'1111.4
2015-Jul-01 03:33N 51°22' E 002°50'1111.2
2015-Jul-01 02:33N 51°23' E 003°08'1111.0
2015-Jul-01 01:33N 51°24' E 003°26'1010.0
2015-Jul-01 00:33N 51°24' E 003°42'6 6.4
2015-Jun-30 23:33N 51°20' E 003°49'3 3.3
2015-Jun-30 22:33N 51°17' E 003°50'7 6.7
2015-Jun-30 21:33N 51°10' E 003°48'5 5.3
2015-Jun-30 20:32N 51°05' E 003°44'0 0.0
2015-Jun-30 19:32N 51°05' E 003°44'0 0.0
2015-Jun-30 18:31N 51°05' E 003°44'0 0.0
2015-Jun-30 17:31N 51°05' E 003°44'0 0.0
2015-Jun-30 16:34N 51°05' E 003°44'0 0.0
2015-Jun-30 15:28N 51°05' E 003°44'0 0.0
2015-Jun-30 14:34N 51°05' E 003°44'0 0.0
2015-Jun-30 13:33N 51°05' E 003°44'0 0.0
2015-Jun-30 12:31N 51°05' E 003°44'0 0.0
2015-Jun-30 11:32N 51°05' E 003°44'0 0.0
2015-Jun-30 10:28N 51°05' E 003°44'0 0.0
2015-Jun-30 09:29N 51°05' E 003°44'0 0.0
2015-Jun-30 08:33N 51°05' E 003°44'0 0.0
2015-Jun-30 07:31N 51°05' E 003°44'0 0.0
2015-Jun-30 06:29N 51°05' E 003°44'0 0.0
2015-Jun-30 05:33N 51°05' E 003°44'0 0.0
2015-Jun-30 04:33N 51°05' E 003°44'0 0.0
2015-Jun-30 03:33N 51°05' E 003°44'0 0.0
2015-Jun-30 02:31N 51°05' E 003°44'0 0.0
2015-Jun-30 01:34N 51°05' E 003°44'0 0.0
2015-Jun-30 00:33N 51°05' E 003°44'0 0.0
2015-Jun-29 23:28N 51°05' E 003°44'0 0.0
2015-Jun-29 22:33N 51°05' E 003°44'0 0.0
2015-Jun-29 21:32N 51°05' E 003°44'0 0.0
2015-Jun-29 20:33N 51°05' E 003°44'0 0.0
2015-Jun-29 19:33N 51°05' E 003°44'0 0.0
2015-Jun-29 18:34N 51°05' E 003°44'0 0.0
2015-Jun-29 17:33N 51°05' E 003°44'0 0.0
2015-Jun-29 16:29N 51°05' E 003°44'0 0.0
2015-Jun-29 15:33N 51°05' E 003°44'0 0.0
2015-Jun-29 14:31N 51°05' E 003°44'0 0.0
2015-Jun-29 13:33N 51°05' E 003°44'0 0.0
2015-Jun-29 12:33N 51°05' E 003°44'0 0.0
2015-Jun-29 11:34N 51°05' E 003°44'0 0.0
2015-Jun-29 10:26N 51°05' E 003°44'0 0.0
2015-Jun-29 09:34N 51°05' E 003°44'0 0.0
2015-Jun-29 08:25N 51°05' E 003°44'0 0.0
2015-Jun-29 07:31N 51°05' E 003°44'0 0.0
2015-Jun-29 06:34N 51°05' E 003°44'0 0.0
2015-Jun-29 05:32N 51°05' E 003°44'0 0.0
2015-Jun-29 04:33N 51°05' E 003°44'0 0.0
2015-Jun-29 03:33N 51°05' E 003°44'0 0.0
2015-Jun-29 02:28N 51°05' E 003°44'0 0.0
2015-Jun-29 01:34N 51°05' E 003°44'0 0.0
2015-Jun-29 00:33N 51°05' E 003°44'0 0.0
2015-Jun-28 23:31N 51°05' E 003°44'0 0.0
2015-Jun-28 22:33N 51°05' E 003°44'1 1.0
2015-Jun-28 21:33N 51°06' E 003°44'9 8.9
2015-Jun-28 20:33N 51°15' E 003°49'5 5.2
2015-Jun-28 19:33N 51°20' E 003°49'2 1.6
2015-Jun-28 18:33N 51°21' E 003°48'10 9.9
2015-Jun-28 17:33N 51°25' E 003°33'8 7.7
2015-Jun-28 16:33N 51°24' E 003°21'9 9.0
2015-Jun-28 15:33N 51°24' E 003°07'1010.2
2015-Jun-28 14:33N 51°22' E 002°51'1211.6
2015-Jun-28 13:33N 51°22' E 002°32'1212.2
2015-Jun-28 12:33N 51°19' E 002°13'1311.5
2015-Jun-28 11:27N 51°26' E 001°56'1011.2
2015-Jun-28 10:33N 51°30' E 001°41'1212.5
2015-Jun-28 09:33N 51°28' E 001°21'1311.5
2015-Jun-28 08:24N 51°29' E 000°60'8 9.5
2015-Jun-28 07:33N 51°29' E 000°47'1010.6
2015-Jun-28 06:33N 51°30' E 000°30'8 7.9
2015-Jun-28 05:33N 51°28' E 000°18'5 4.8
2015-Jun-28 04:33N 51°29' E 000°10'0 0.0
2015-Jun-28 03:34N 51°29' E 000°10'0 0.0
2015-Jun-28 02:33N 51°29' E 000°10'0 0.0
2015-Jun-28 01:33N 51°29' E 000°10'0 0.0
2015-Jun-28 00:33N 51°29' E 000°10'0 0.0
2015-Jun-27 23:33N 51°29' E 000°10'0 0.0
2015-Jun-27 22:33N 51°29' E 000°10'0 0.0
2015-Jun-27 21:33N 51°29' E 000°10'0 0.0
2015-Jun-27 20:33N 51°29' E 000°10'0 0.0
2015-Jun-27 19:33N 51°29' E 000°10'0 0.0
2015-Jun-27 18:33N 51°29' E 000°10'0 0.0
2015-Jun-27 17:33N 51°29' E 000°10'0 0.0
2015-Jun-27 16:30N 51°29' E 000°10'0 0.0
2015-Jun-27 15:33N 51°29' E 000°10'0 0.0
2015-Jun-27 14:33N 51°29' E 000°10'0 0.0
2015-Jun-27 13:33N 51°29' E 000°10'0 0.0
2015-Jun-27 12:33N 51°29' E 000°10'0 0.0
2015-Jun-27 11:33N 51°29' E 000°10'0 0.0
2015-Jun-27 10:33N 51°29' E 000°10'0 0.0
2015-Jun-27 09:33N 51°29' E 000°10'0 0.0
2015-Jun-27 08:33N 51°29' E 000°10'0 0.0
2015-Jun-27 07:33N 51°29' E 000°10'0 0.0
2015-Jun-27 06:32N 51°29' E 000°10'0 0.0
2015-Jun-27 05:32N 51°29' E 000°10'0 0.0
2015-Jun-27 04:33N 51°29' E 000°10'0 0.2
2015-Jun-27 03:33N 51°29' E 000°11'0 0.0
2015-Jun-27 02:33N 51°29' E 000°11'0 0.0
2015-Jun-27 01:33N 51°29' E 000°11'0 0.0
2015-Jun-27 00:33N 51°29' E 000°11'0 0.0
2015-Jun-26 23:33N 51°29' E 000°11'0 0.0
2015-Jun-26 22:33N 51°29' E 000°11'0 0.2
2015-Jun-26 21:33N 51°29' E 000°10'0 0.0
2015-Jun-26 20:33N 51°29' E 000°10'0 0.0
2015-Jun-26 19:33N 51°29' E 000°10'0 0.0
2015-Jun-26 18:33N 51°29' E 000°10'0 0.0
2015-Jun-26 17:33N 51°29' E 000°10'0 0.0
2015-Jun-26 16:33N 51°29' E 000°10'4 4.2
2015-Jun-26 15:33N 51°28' E 000°16'8 8.2
2015-Jun-26 14:34N 51°30' E 000°29'8 8.2
2015-Jun-26 13:34N 51°30' E 000°42'8 7.6
2015-Jun-26 12:29N 51°29' E 000°55'9 9.0
2015-Jun-26 11:27N 51°29' E 001°10'8 9.2
2015-Jun-26 10:34N 51°28' E 001°23'8 7.9
2015-Jun-26 09:34N 51°23' E 001°33'2 2.2
2015-Jun-26 08:34N 51°21' E 001°35'5 5.0
2015-Jun-26 07:34N 51°16' E 001°37'2 2.2
2015-Jun-26 06:34N 51°14' E 001°37'6 6.3
2015-Jun-26 05:33N 51°08' E 001°39'7 7.3
2015-Jun-26 04:34N 51°02' E 001°33'8 8.1
2015-Jun-26 03:34N 50°56' E 001°25'9 8.7
2015-Jun-26 02:34N 50°47' E 001°21'8 8.0
2015-Jun-26 01:33N 50°40' E 001°15'9 8.5
2015-Jun-26 00:32N 50°35' E 001°04'8 8.3
2015-Jun-25 23:32N 50°31' E 000°53'17 8.3
2015-Jun-25 21:28N 50°26' E 000°27'35 9.0
2015-Jun-25 17:32N 50°19' W 000°27'1110.8
2015-Jun-25 16:33N 50°18' W 000°44'1211.8
2015-Jun-25 15:34N 50°17' W 001°02'1212.3
2015-Jun-25 14:34N 50°16' W 001°21'1312.6
2015-Jun-25 13:34N 50°15' W 001°41'1312.3
2015-Jun-25 12:32N 50°14' W 002°00'1212.0
2015-Jun-25 11:34N 50°12' W 002°18'1111.4
2015-Jun-25 10:33N 50°12' W 002°36'1010.0
2015-Jun-25 09:34N 50°11' W 002°52'1010.1
2015-Jun-25 08:33N 50°10' W 003°08'10 9.8
2015-Jun-25 07:34N 50°08' W 003°22'263 7.7
2015-Jun-23 21:31N 54°20' W 005°21'1010.9
2015-Jun-23 20:33N 54°31' W 005°22'1010.1
2015-Jun-23 19:33N 54°40' W 005°28'4 8.2
2015-Jun-23 19:06N 54°43' W 005°33'  
Track history (hours):
 
Tides and Currents Weather Stations Pressure Air Temp Water Temp Dewpoint Dewpoint Depression Visibility Wind Speed Wind Dir Waves Ship Positions

Arklow Rock

Last reported at 2015-Jul-03 08:24 UTC. Time now 2015-Jul-03 20:16 UTC.
Position N 51°34' W 010°20'.

Length 90 m; draft 6.1 m.

Type: Cargo ship. MMSI: 246002000.

Date/timePositionNaut miles runAvg speedWind from/ knotsBaromVisibWave heightAir tempDewpointWater temp
2015-Jul-03 08:24N 51°34' W 010°20'1110.7
2015-Jul-03 07:24N 51°28' W 010°06'1910.4
2015-Jul-03 05:33N 51°15' W 009°42'10 9.9
2015-Jul-03 04:33N 51°10' W 009°30'240 9.5
2015-Jul-02 03:15N 50°07' W 003°25'811.4
2015-Jul-02 02:31N 50°09' W 003°12'1212.4
2015-Jul-02 01:33N 50°11' W 002°54'1712.9
2015-Jul-02 00:12N 50°15' W 002°27'75 9.3
2015-Jul-01 16:04N 50°29' W 000°31'3312.3
2015-Jul-01 13:23N 50°36' E 000°20'911.5
2015-Jul-01 12:33N 50°39' E 000°34'1110.6
2015-Jul-01 11:33N 50°45' E 000°48'10 9.8
2015-Jul-01 10:33N 50°51' E 001°01'10 9.9
2015-Jul-01 09:33N 50°57' E 001°13'1111.0
2015-Jul-01 08:33N 51°04' E 001°27'1313.5
2015-Jul-01 07:33N 51°12' E 001°43'1413.7
2015-Jul-01 06:33N 51°23' E 001°57'1110.7
2015-Jul-01 05:33N 51°21' E 002°13'1211.9
2015-Jul-01 04:33N 51°23' E 002°32'1111.4
2015-Jul-01 03:33N 51°22' E 002°50'1111.2
2015-Jul-01 02:33N 51°23' E 003°08'1111.0
2015-Jul-01 01:33N 51°24' E 003°26'1010.0
2015-Jul-01 00:33N 51°24' E 003°42'6 6.4
2015-Jun-30 23:33N 51°20' E 003°49'3 3.3
2015-Jun-30 22:33N 51°17' E 003°50'7 6.7
2015-Jun-30 21:33N 51°10' E 003°48'5 5.3
2015-Jun-30 20:32N 51°05' E 003°44'0 0.0
2015-Jun-30 19:32N 51°05' E 003°44'0 0.0
2015-Jun-30 18:31N 51°05' E 003°44'0 0.0
2015-Jun-30 17:31N 51°05' E 003°44'0 0.0
2015-Jun-30 16:34N 51°05' E 003°44'0 0.0
2015-Jun-30 15:28N 51°05' E 003°44'0 0.0
2015-Jun-30 14:34N 51°05' E 003°44'0 0.0
2015-Jun-30 13:33N 51°05' E 003°44'0 0.0
2015-Jun-30 12:31N 51°05' E 003°44'0 0.0
2015-Jun-30 11:32N 51°05' E 003°44'0 0.0
2015-Jun-30 10:28N 51°05' E 003°44'0 0.0
2015-Jun-30 09:29N 51°05' E 003°44'0 0.0
2015-Jun-30 08:33N 51°05' E 003°44'0 0.0
2015-Jun-30 07:31N 51°05' E 003°44'0 0.0
2015-Jun-30 06:29N 51°05' E 003°44'0 0.0
2015-Jun-30 05:33N 51°05' E 003°44'0 0.0
2015-Jun-30 04:33N 51°05' E 003°44'0 0.0
2015-Jun-30 03:33N 51°05' E 003°44'0 0.0
2015-Jun-30 02:31N 51°05' E 003°44'0 0.0
2015-Jun-30 01:34N 51°05' E 003°44'0 0.0
2015-Jun-30 00:33N 51°05' E 003°44'0 0.0
2015-Jun-29 23:28N 51°05' E 003°44'0 0.0
2015-Jun-29 22:33N 51°05' E 003°44'0 0.0
2015-Jun-29 21:32N 51°05' E 003°44'0 0.0
2015-Jun-29 20:33N 51°05' E 003°44'0 0.0
2015-Jun-29 19:33N 51°05' E 003°44'0 0.0
2015-Jun-29 18:34N 51°05' E 003°44'0 0.0
2015-Jun-29 17:33N 51°05' E 003°44'0 0.0
2015-Jun-29 16:29N 51°05' E 003°44'0 0.0
2015-Jun-29 15:33N 51°05' E 003°44'0 0.0
2015-Jun-29 14:31N 51°05' E 003°44'0 0.0
2015-Jun-29 13:33N 51°05' E 003°44'0 0.0
2015-Jun-29 12:33N 51°05' E 003°44'0 0.0
2015-Jun-29 11:34N 51°05' E 003°44'0 0.0
2015-Jun-29 10:26N 51°05' E 003°44'0 0.0
2015-Jun-29 09:34N 51°05' E 003°44'0 0.0
2015-Jun-29 08:25N 51°05' E 003°44'0 0.0
2015-Jun-29 07:31N 51°05' E 003°44'0 0.0
2015-Jun-29 06:34N 51°05' E 003°44'0 0.0
2015-Jun-29 05:32N 51°05' E 003°44'0 0.0
2015-Jun-29 04:33N 51°05' E 003°44'0 0.0
2015-Jun-29 03:33N 51°05' E 003°44'0 0.0
2015-Jun-29 02:28N 51°05' E 003°44'0 0.0
2015-Jun-29 01:34N 51°05' E 003°44'0 0.0
2015-Jun-29 00:33N 51°05' E 003°44'0 0.0
2015-Jun-28 23:31N 51°05' E 003°44'0 0.0
2015-Jun-28 22:33N 51°05' E 003°44'1 1.0
2015-Jun-28 21:33N 51°06' E 003°44'9 8.9
2015-Jun-28 20:33N 51°15' E 003°49'5 5.2
2015-Jun-28 19:33N 51°20' E 003°49'2 1.6
2015-Jun-28 18:33N 51°21' E 003°48'10 9.9
2015-Jun-28 17:33N 51°25' E 003°33'8 7.7
2015-Jun-28 16:33N 51°24' E 003°21'9 9.0
2015-Jun-28 15:33N 51°24' E 003°07'1010.2
2015-Jun-28 14:33N 51°22' E 002°51'1211.6
2015-Jun-28 13:33N 51°22' E 002°32'1212.2
2015-Jun-28 12:33N 51°19' E 002°13'1311.5
2015-Jun-28 11:27N 51°26' E 001°56'1011.2
2015-Jun-28 10:33N 51°30' E 001°41'1212.5
2015-Jun-28 09:33N 51°28' E 001°21'1311.5
2015-Jun-28 08:24N 51°29' E 000°60'8 9.5
2015-Jun-28 07:33N 51°29' E 000°47'1010.6
2015-Jun-28 06:33N 51°30' E 000°30'8 7.9
2015-Jun-28 05:33N 51°28' E 000°18'5 4.8
2015-Jun-28 04:33N 51°29' E 000°10'0 0.0
2015-Jun-28 03:34N 51°29' E 000°10'0 0.0
2015-Jun-28 02:33N 51°29' E 000°10'0 0.0
2015-Jun-28 01:33N 51°29' E 000°10'0 0.0
2015-Jun-28 00:33N 51°29' E 000°10'0 0.0
2015-Jun-27 23:33N 51°29' E 000°10'0 0.0
2015-Jun-27 22:33N 51°29' E 000°10'0 0.0
2015-Jun-27 21:33N 51°29' E 000°10'0 0.0
2015-Jun-27 20:33N 51°29' E 000°10'0 0.0
2015-Jun-27 19:33N 51°29' E 000°10'0 0.0
2015-Jun-27 18:33N 51°29' E 000°10'0 0.0
2015-Jun-27 17:33N 51°29' E 000°10'0 0.0
2015-Jun-27 16:30N 51°29' E 000°10'0 0.0
2015-Jun-27 15:33N 51°29' E 000°10'0 0.0
2015-Jun-27 14:33N 51°29' E 000°10'0 0.0
2015-Jun-27 13:33N 51°29' E 000°10'0 0.0
2015-Jun-27 12:33N 51°29' E 000°10'0 0.0
2015-Jun-27 11:33N 51°29' E 000°10'0 0.0
2015-Jun-27 10:33N 51°29' E 000°10'0 0.0
2015-Jun-27 09:33N 51°29' E 000°10'0 0.0
2015-Jun-27 08:33N 51°29' E 000°10'0 0.0
2015-Jun-27 07:33N 51°29' E 000°10'0 0.0
2015-Jun-27 06:32N 51°29' E 000°10'0 0.0
2015-Jun-27 05:32N 51°29' E 000°10'0 0.0
2015-Jun-27 04:33N 51°29' E 000°10'0 0.2
2015-Jun-27 03:33N 51°29' E 000°11'0 0.0
2015-Jun-27 02:33N 51°29' E 000°11'0 0.0
2015-Jun-27 01:33N 51°29' E 000°11'0 0.0
2015-Jun-27 00:33N 51°29' E 000°11'0 0.0
2015-Jun-26 23:33N 51°29' E 000°11'0 0.0
2015-Jun-26 22:33N 51°29' E 000°11'0 0.2
2015-Jun-26 21:33N 51°29' E 000°10'0 0.0
2015-Jun-26 20:33N 51°29' E 000°10'0 0.0
2015-Jun-26 19:33N 51°29' E 000°10'0 0.0
2015-Jun-26 18:33N 51°29' E 000°10'0 0.0
2015-Jun-26 17:33N 51°29' E 000°10'0 0.0
2015-Jun-26 16:33N 51°29' E 000°10'4 4.2
2015-Jun-26 15:33N 51°28' E 000°16'8 8.2
2015-Jun-26 14:34N 51°30' E 000°29'8 8.2
2015-Jun-26 13:34N 51°30' E 000°42'8 7.6
2015-Jun-26 12:29N 51°29' E 000°55'9 9.0
2015-Jun-26 11:27N 51°29' E 001°10'8 9.2
2015-Jun-26 10:34N 51°28' E 001°23'8 7.9
2015-Jun-26 09:34N 51°23' E 001°33'2 2.2
2015-Jun-26 08:34N 51°21' E 001°35'5 5.0
2015-Jun-26 07:34N 51°16' E 001°37'2 2.2
2015-Jun-26 06:34N 51°14' E 001°37'6 6.3
2015-Jun-26 05:33N 51°08' E 001°39'7 7.3
2015-Jun-26 04:34N 51°02' E 001°33'8 8.1
2015-Jun-26 03:34N 50°56' E 001°25'9 8.7
2015-Jun-26 02:34N 50°47' E 001°21'8 8.0
2015-Jun-26 01:33N 50°40' E 001°15'9 8.5
2015-Jun-26 00:32N 50°35' E 001°04'8 8.3
2015-Jun-25 23:32N 50°31' E 000°53'17 8.3
2015-Jun-25 21:28N 50°26' E 000°27'35 9.0
2015-Jun-25 17:32N 50°19' W 000°27'1110.8
2015-Jun-25 16:33N 50°18' W 000°44'1211.8
2015-Jun-25 15:34N 50°17' W 001°02'1212.3
2015-Jun-25 14:34N 50°16' W 001°21'1312.6
2015-Jun-25 13:34N 50°15' W 001°41'1312.3
2015-Jun-25 12:32N 50°14' W 002°00'1212.0
2015-Jun-25 11:34N 50°12' W 002°18'1111.4
2015-Jun-25 10:33N 50°12' W 002°36'1010.0
2015-Jun-25 09:34N 50°11' W 002°52'1010.1
2015-Jun-25 08:33N 50°10' W 003°08'10 9.8
2015-Jun-25 07:34N 50°08' W 003°22'263 7.7
2015-Jun-23 21:31N 54°20' W 005°21'1010.9
2015-Jun-23 20:33N 54°31' W 005°22'1010.1
2015-Jun-23 19:33N 54°40' W 005°28'4 8.2
2015-Jun-23 19:06N 54°43' W 005°33'  

Dump ship's entire track history